»·PEaware :: N614FT KSNA-KBUR

N614FT :: KSNA-KBUR

FLIGHT INFORMATION

Flight Status: Arrived
Operator: Privately registered:
United States
More flights under this callsign
Pilot: Carlos A. (16805)
Aircraft: PIPER PA-31/31P NAVAJO CHIEFTAIN
(PA31)
More flights by this aircraft type
Origin: KSNA John Wayne-Orange Co
United States
Destination: KBUR Bob Hope-Burbank
United States
More flights between these airports :: More routes between these airports
Route: SLI V23 POPPR SMO125 SMO SMO311 SILEX
File this flight plan on PilotEdge
Remarks:
Altitude:
(Current/Filed)
4,000ft
Speed:
(Current/Filed)
0kts
Departed: 19-Jan-23 09:00 AM
Arrived: 19-Jan-23 09:28 AM
Distance/Time
Traveled:
40nm/0:28
Distance/Time
To Go:
Arrived

Flight Plot

Page will automatically refresh every two minutes.


Map Options




Map Legend


Flown Route
Filed Route
Departure Airport
Arrival Airport
Navaid (VOR, NDB)
Fix

Horizontal Profiles

Position Reports

Time Latitude Longitude Heading Altitude Ground
Speed
19-Jan-23 08:28 33.675611 -117.871257 22 60ft 0kts
19-Jan-23 08:29 33.675612 -117.871257 22 60ft 0kts
19-Jan-23 08:30 33.675613 -117.871256 22 60ft 0kts
19-Jan-23 08:31 33.675615 -117.871255 22 60ft 0kts
19-Jan-23 08:32 33.675616 -117.871255 22 60ft 0kts
19-Jan-23 08:33 33.675617 -117.871254 22 60ft 0kts
19-Jan-23 08:34 33.675619 -117.871253 22 60ft 0kts
19-Jan-23 08:35 33.675620 -117.871253 22 60ft 0kts
19-Jan-23 08:36 33.675622 -117.871252 22 60ft 0kts
19-Jan-23 08:37 33.675623 -117.871251 22 60ft 0kts
19-Jan-23 08:38 33.675624 -117.871251 22 60ft 0kts
19-Jan-23 08:39 33.675699 -117.871132 103 60ft 0kts
19-Jan-23 08:40 33.675649 -117.870910 106 60ft 0kts
19-Jan-23 08:41 33.675649 -117.870908 106 60ft 0kts
19-Jan-23 08:42 33.675648 -117.870906 106 60ft 0kts
19-Jan-23 08:43 33.676365 -117.870113 19 60ft 8kts
19-Jan-23 08:44 33.677808 -117.868981 356 60ft 0kts
19-Jan-23 08:45 33.677816 -117.868982 356 60ft 0kts
19-Jan-23 08:46 33.677827 -117.868982 356 60ft 0kts
19-Jan-23 08:47 33.677837 -117.868983 356 60ft 0kts
19-Jan-23 08:48 33.677840 -117.868983 356 60ft 0kts
19-Jan-23 08:49 33.677842 -117.868983 356 60ft 0kts
19-Jan-23 08:50 33.677843 -117.868983 356 60ft 0kts
19-Jan-23 08:51 33.677845 -117.868984 356 60ft 0kts
19-Jan-23 08:52 33.678102 -117.869059 22 60ft 1kts
19-Jan-23 08:53 33.681005 -117.867321 39 60ft 10kts
19-Jan-23 08:54 33.680842 -117.866439 118 60ft 0kts
19-Jan-23 08:55 33.680841 -117.866437 118 60ft 0kts
19-Jan-23 08:56 33.680840 -117.866435 118 60ft 0kts
19-Jan-23 08:57 33.680840 -117.866433 118 60ft 0kts
19-Jan-23 08:58 33.680459 -117.865842 211 60ft 2kts
19-Jan-23 08:59 33.666407 -117.878096 230 809ft 98kts
19-Jan-23 09:00 33.648012 -117.901761 224 2245ft 109kts
19-Jan-23 09:01 33.630513 -117.933149 267 3041ft 127kts
19-Jan-23 09:02 33.661667 -117.951132 352 3851ft 128kts
19-Jan-23 09:03 33.702084 -117.953897 355 3831ft 176kts
19-Jan-23 09:04 33.738004 -117.984056 306 3997ft 174kts
19-Jan-23 09:05 33.766873 -118.029097 306 3959ft 170kts
19-Jan-23 09:06 33.790394 -118.081086 284 3953ft 186kts
19-Jan-23 09:07 33.803233 -118.142432 283 3950ft 189kts
19-Jan-23 09:08 33.820698 -118.202830 290 3881ft 193kts
19-Jan-23 09:09 33.836245 -118.263506 297 3904ft 192kts
19-Jan-23 09:10 33.871286 -118.310911 315 3919ft 193kts
19-Jan-23 09:11 33.911451 -118.353749 314 3909ft 194kts
19-Jan-23 09:12 33.950107 -118.397528 321 3911ft 192kts
19-Jan-23 09:13 33.991206 -118.436298 317 4114ft 186kts
19-Jan-23 09:14 34.032254 -118.478240 321 3935ft 197kts
19-Jan-23 09:15 34.060958 -118.529898 286 4006ft 188kts
19-Jan-23 09:16 34.076339 -118.590465 286 4008ft 181kts
19-Jan-23 09:17 34.090219 -118.647187 288 3998ft 172kts
19-Jan-23 09:18 34.108431 -118.700106 295 4024ft 168kts
19-Jan-23 09:19 34.148234 -118.705292 56 3873ft 179kts
19-Jan-23 09:20 34.172049 -118.654439 64 3999ft 172kts
19-Jan-23 09:21 34.193233 -118.602293 62 3997ft 174kts
19-Jan-23 09:22 34.203917 -118.545738 97 3808ft 174kts
19-Jan-23 09:23 34.199234 -118.488047 89 3108ft 176kts
19-Jan-23 09:24 34.198493 -118.433498 91 1881ft 135kts
19-Jan-23 09:25 34.198141 -118.397225 87 1237ft 87kts
19-Jan-23 09:26 34.197851 -118.367229 90 785ft 84kts
19-Jan-23 09:27 34.198336 -118.360302 1 782ft 0kts
19-Jan-23 09:28 34.198337 -118.360302 1 782ft 0kts
19-Jan-23 09:29 34.198823 -118.360266 2 782ft 10kts
19-Jan-23 09:30 34.199999 -118.358806 346 782ft 10kts
19-Jan-23 09:31 34.202271 -118.360103 255 782ft 0kts
19-Jan-23 09:32 34.202271 -118.360105 255 782ft 0kts
19-Jan-23 09:33 34.202270 -118.360107 255 782ft 0kts

Navigation Log

Ident Type
Flight plan parsing failed, navigation log unavailable